Ester, Alaska
Current Conditions -  °F | °C
As of 5:53 AM on Monday 22 Dec 2014 (Local Time) from PAFA Reporting Station
Broken Clouds Broken Clouds  
Wind Chill: -11°   Ceiling: 25000
Heat Index: -11°   Visibility: 10mi
Dew Point: -18°   Wind: 0mph
Humidity: 71%   Direction: NA
Pressure: 29.77"   Gusts: NA
Location:  64.85°N, 148.02°W
Report Text: PAFA 221453Z 00000KT 10SM FEW010 FEW060 BKN250 M24/M28 A2977 RMK AO2 SLP097 POWER PLANT PLUME FEW010 T12391278 51021
Loading
Personal Weather Stations






























Interactive Weather Map New forecast layout! Learn more

10-Day Weather Forecast

Advertisements
Track Severe Weather on mobile